Time;durP1;ratioP1;P1;durP2;ratioP2;P2;SDS_P1;SDS_P2;PMS_P1;PMS_P2;Temp;Humidity;BMP_temperature;BMP_pressure;BME280_temperature;BME280_humidity;BME280_pressure;Samples;Min_cycle;Max_cycle;Signal;HPM_P1;HPM_P2
2022/03/07 00:01:09;;;;;;;1.92;1.38;;;;;;;;;;5081563;28;20052;-65
2022/03/07 00:03:35;;;;;;;2.42;1.75;;;;;;;;;;5073108;28;20035;-66
2022/03/07 00:06:01;;;;;;;1.95;1.30;;;;;;;;;;5072949;28;20082;-66
2022/03/07 00:08:28;;;;;;;1.23;1.10;;;;;;;;;;5072432;28;20025;-66
2022/03/07 00:10:54;;;;;;;2.05;1.48;;;;;;;;;;5080628;28;20081;-65
2022/03/07 00:13:21;;;;;;;1.85;1.35;;;;;;;;;;5092576;28;20028;-66
2022/03/07 00:15:47;;;;;;;1.98;1.33;;;;;;;;;;5093032;28;20048;-66
2022/03/07 00:18:13;;;;;;;2.33;1.75;;;;;;;;;;5092309;28;20039;-67
2022/03/07 00:20:39;;;;;;;1.67;1.35;;;;;;;;;;5089737;28;20028;-67
2022/03/07 00:23:05;;;;;;;2.22;1.30;;;;;;;;;;5072569;28;20060;-59
2022/03/07 00:25:31;;;;;;;1.30;1.10;;;;;;;;;;5072601;28;20025;-67
2022/03/07 00:27:57;;;;;;;1.83;1.27;;;;;;;;;;5072126;28;20114;-68
2022/03/07 00:30:23;;;;;;;2.58;1.63;;;;;;;;;;5072821;28;20060;-67
2022/03/07 00:32:49;;;;;;;1.60;1.10;;;;;;;;;;5092638;28;20516;-68
2022/03/07 00:35:16;;;;;;;1.80;1.45;;;;;;;;;;5091913;28;20028;-67
2022/03/07 00:37:42;;;;;;;1.63;1.20;;;;;;;;;;5092349;28;20024;-67
2022/03/07 00:40:10;;;;;;;1.80;1.40;;;;;;;;;;5092076;28;20144;-67
2022/03/07 00:42:37;;;;;;;1.50;1.40;;;;;;;;;;5073220;28;20107;-67
2022/03/07 00:45:04;;;;;;;1.67;1.35;;;;;;;;;;5088072;28;20028;-66
2022/03/07 00:47:31;;;;;;;1.48;1.27;;;;;;;;;;5092090;28;20040;-66
2022/03/07 00:49:57;;;;;;;1.50;1.38;;;;;;;;;;5092093;28;20055;-66
2022/03/07 00:52:23;;;;;;;2.55;1.40;;;;;;;;;;5074758;28;20056;-67
2022/03/07 00:54:48;;;;;;;1.70;1.38;;;;;;;;;;5072284;28;20031;-67
2022/03/07 00:57:14;;;;;;;1.55;1.42;;;;;;;;;;5071055;28;20051;-66
2022/03/07 00:59:40;;;;;;;1.70;1.52;;;;;;;;;;5087523;28;20028;-67
2022/03/07 01:02:06;;;;;;;2.15;1.30;;;;;;;;;;5077980;28;20032;-56
2022/03/07 01:04:33;;;;;;;2.00;1.55;;;;;;;;;;5072032;28;20485;-66
2022/03/07 01:06:58;;;;;;;1.75;1.20;;;;;;;;;;5072047;28;20037;-67
2022/03/07 01:09:25;;;;;;;2.60;1.45;;;;;;;;;;5070858;28;20905;-66
2022/03/07 01:11:51;;;;;;;1.75;1.20;;;;;;;;;;5081075;28;20044;-67
2022/03/07 01:14:17;;;;;;;1.95;1.48;;;;;;;;;;5091512;28;20039;-67
2022/03/07 01:16:43;;;;;;;1.98;1.50;;;;;;;;;;5091731;28;20562;-67
2022/03/07 01:19:09;;;;;;;1.98;1.38;;;;;;;;;;5085683;28;20099;-57
2022/03/07 01:21:35;;;;;;;1.77;1.27;;;;;;;;;;5084775;28;20042;-67
2022/03/07 01:24:01;;;;;;;2.67;1.10;;;;;;;;;;5076016;28;20035;-67
2022/03/07 01:26:27;;;;;;;1.88;1.48;;;;;;;;;;5085827;28;20655;-67
2022/03/07 01:28:53;;;;;;;2.58;1.20;;;;;;;;;;5092169;28;20024;-67
2022/03/07 01:31:19;;;;;;;1.40;1.23;;;;;;;;;;5089244;28;20029;-67
2022/03/07 01:33:45;;;;;;;1.77;1.30;;;;;;;;;;5071900;28;20024;-67
2022/03/07 01:36:11;;;;;;;1.25;1.15;;;;;;;;;;5070932;28;20029;-66
2022/03/07 01:38:37;;;;;;;2.38;1.23;;;;;;;;;;5071680;28;20036;-67
2022/03/07 01:41:03;;;;;;;2.38;1.10;;;;;;;;;;5076118;28;20028;-67
2022/03/07 01:43:30;;;;;;;1.60;1.38;;;;;;;;;;5091276;28;20709;-67
2022/03/07 01:45:56;;;;;;;1.42;1.30;;;;;;;;;;5076119;28;20024;-66
2022/03/07 01:48:22;;;;;;;2.13;1.35;;;;;;;;;;5057079;28;20045;-67
2022/03/07 01:50:49;;;;;;;1.92;1.23;;;;;;;;;;5076001;28;20025;-66
2022/03/07 01:53:15;;;;;;;2.20;1.40;;;;;;;;;;5092711;28;20035;-59
2022/03/07 01:55:41;;;;;;;1.85;1.15;;;;;;;;;;5095807;28;20060;-66
2022/03/07 01:58:07;;;;;;;2.35;1.23;;;;;;;;;;5095547;28;20513;-58
2022/03/07 02:00:33;;;;;;;2.08;1.20;;;;;;;;;;5095855;28;20035;-67
2022/03/07 02:03:01;;;;;;;1.73;1.27;;;;;;;;;;5080805;28;20497;-67
2022/03/07 02:05:27;;;;;;;1.17;1.05;;;;;;;;;;5074871;28;20174;-67
2022/03/07 02:07:55;;;;;;;1.30;1.20;;;;;;;;;;5075996;28;20122;-66
2022/03/07 02:10:21;;;;;;;2.05;1.30;;;;;;;;;;5074326;28;20024;-67
2022/03/07 02:12:47;;;;;;;3.30;1.40;;;;;;;;;;5077308;28;20024;-67
2022/03/07 02:15:13;;;;;;;1.40;1.15;;;;;;;;;;5094897;28;20078;-66
2022/03/07 02:17:44;;;;;;;1.45;1.17;;;;;;;;;;5095539;28;20036;-67
2022/03/07 02:20:11;;;;;;;1.47;0.97;;;;;;;;;;5075299;28;20029;-57
2022/03/07 02:22:37;;;;;;;1.35;1.10;;;;;;;;;;5074649;28;20024;-67
2022/03/07 02:25:03;;;;;;;1.40;1.30;;;;;;;;;;5093214;28;20112;-67
2022/03/07 02:27:29;;;;;;;2.05;1.38;;;;;;;;;;5094332;28;20086;-67
2022/03/07 02:29:55;;;;;;;2.15;1.52;;;;;;;;;;5095023;28;20058;-67
2022/03/07 02:32:22;;;;;;;1.38;1.27;;;;;;;;;;5094468;28;20012;-67
2022/03/07 02:34:48;;;;;;;1.10;0.98;;;;;;;;;;5095240;28;20053;-67
2022/03/07 02:37:14;;;;;;;1.00;0.90;;;;;;;;;;5074988;28;20389;-66
2022/03/07 02:39:40;;;;;;;1.63;1.27;;;;;;;;;;5074809;28;20491;-67
2022/03/07 02:42:06;;;;;;;1.50;1.30;;;;;;;;;;5074785;28;20027;-67
2022/03/07 02:44:32;;;;;;;1.52;1.02;;;;;;;;;;5085143;28;20035;-67
2022/03/07 02:46:58;;;;;;;1.95;1.25;;;;;;;;;;5094466;28;20044;-67
2022/03/07 02:49:24;;;;;;;1.42;0.90;;;;;;;;;;5075527;28;20047;-61
2022/03/07 02:51:50;;;;;;;2.47;1.40;;;;;;;;;;5073740;28;20086;-68
2022/03/07 02:54:16;;;;;;;2.65;1.17;;;;;;;;;;5055933;28;20048;-66
2022/03/07 02:56:44;;;;;;;1.50;1.23;;;;;;;;;;5074800;28;20039;-67
2022/03/07 02:59:10;;;;;;;1.83;1.45;;;;;;;;;;5074212;28;20074;-57
2022/03/07 03:01:36;;;;;;;1.77;1.20;;;;;;;;;;5090481;28;20469;-66
2022/03/07 03:04:03;;;;;;;1.33;1.23;;;;;;;;;;5094676;28;20073;-67
2022/03/07 03:06:29;;;;;;;1.23;1.00;;;;;;;;;;5093513;28;20918;-67
2022/03/07 03:08:55;;;;;;;1.58;0.90;;;;;;;;;;5094525;28;20024;-67
2022/03/07 03:11:21;;;;;;;1.52;1.27;;;;;;;;;;5093834;28;20024;-67
2022/03/07 03:13:47;;;;;;;1.77;1.30;;;;;;;;;;5077008;28;20162;-67
2022/03/07 03:16:13;;;;;;;1.55;1.15;;;;;;;;;;5073349;28;20060;-55
2022/03/07 03:18:39;;;;;;;1.75;1.30;;;;;;;;;;5074162;28;20035;-67
2022/03/07 03:21:05;;;;;;;1.10;0.90;;;;;;;;;;5074476;28;20028;-67
2022/03/07 03:23:31;;;;;;;1.63;1.20;;;;;;;;;;5086969;28;20095;-67
2022/03/07 03:25:57;;;;;;;3.15;1.23;;;;;;;;;;5094406;28;20081;-67
2022/03/07 03:28:23;;;;;;;2.63;1.17;;;;;;;;;;5092684;28;20419;-67
2022/03/07 03:30:50;;;;;;;0.98;0.82;;;;;;;;;;5094466;28;20020;-67
2022/03/07 03:33:16;;;;;;;1.10;1.00;;;;;;;;;;5081875;28;20017;-67
2022/03/07 03:35:42;;;;;;;1.20;1.00;;;;;;;;;;5073956;28;20025;-67
2022/03/07 03:38:08;;;;;;;1.95;1.45;;;;;;;;;;5073666;28;20032;-67
2022/03/07 03:40:35;;;;;;;3.30;1.27;;;;;;;;;;5082005;28;20020;-67
2022/03/07 03:43:01;;;;;;;1.50;1.10;;;;;;;;;;5085101;28;20035;-67
2022/03/07 03:45:27;;;;;;;1.38;1.10;;;;;;;;;;5091932;28;20399;-67
2022/03/07 03:47:53;;;;;;;1.45;1.08;;;;;;;;;;5093701;28;20048;-67
2022/03/07 03:50:19;;;;;;;1.40;1.23;;;;;;;;;;5085733;28;20098;-66
2022/03/07 03:52:45;;;;;;;1.65;1.17;;;;;;;;;;5076712;28;20035;-67
2022/03/07 03:55:12;;;;;;;2.13;1.42;;;;;;;;;;5093459;28;20047;-59
2022/03/07 03:57:39;;;;;;;1.67;1.15;;;;;;;;;;5075242;28;20107;-71
2022/03/07 04:00:06;;;;;;;1.45;1.15;;;;;;;;;;5093189;28;20409;-69
2022/03/07 04:02:32;;;;;;;1.45;1.17;;;;;;;;;;5090515;28;20016;-65
2022/03/07 04:04:58;;;;;;;1.23;1.05;;;;;;;;;;5073219;28;20024;-66
2022/03/07 04:07:24;;;;;;;1.42;1.15;;;;;;;;;;5073922;28;20381;-68
2022/03/07 04:09:50;;;;;;;1.70;1.27;;;;;;;;;;5093128;28;20024;-67
2022/03/07 04:12:16;;;;;;;1.25;1.00;;;;;;;;;;5092290;28;20024;-66
2022/03/07 04:14:42;;;;;;;1.75;1.35;;;;;;;;;;5092742;28;20074;-67
2022/03/07 04:17:08;;;;;;;1.70;1.08;;;;;;;;;;5076947;28;20056;-67
2022/03/07 04:19:34;;;;;;;1.83;1.15;;;;;;;;;;5054051;28;20473;-66
2022/03/07 04:22:00;;;;;;;1.30;0.90;;;;;;;;;;5072621;28;20416;-65
2022/03/07 04:24:30;;;;;;;1.65;1.23;;;;;;;;;;5088178;28;20032;-69
2022/03/07 04:26:56;;;;;;;1.23;1.05;;;;;;;;;;5092942;28;20028;-67
2022/03/07 04:29:22;;;;;;;1.95;1.52;;;;;;;;;;5092108;28;20023;-67
2022/03/07 04:31:48;;;;;;;1.23;1.10;;;;;;;;;;5092783;28;20100;-60
2022/03/07 04:34:14;;;;;;;1.73;1.42;;;;;;;;;;5077890;28;20078;-58
2022/03/07 04:36:40;;;;;;;1.45;1.05;;;;;;;;;;5086520;28;20028;-66
2022/03/07 04:39:07;;;;;;;1.23;1.13;;;;;;;;;;5092399;28;20373;-68
2022/03/07 04:41:34;;;;;;;1.90;1.40;;;;;;;;;;5078874;28;20580;-66
2022/03/07 04:44:00;;;;;;;1.83;1.30;;;;;;;;;;5074335;28;20141;-67
2022/03/07 04:46:26;;;;;;;1.33;1.10;;;;;;;;;;5071379;28;20029;-68
2022/03/07 04:48:52;;;;;;;1.20;0.93;;;;;;;;;;5072419;28;20153;-65
2022/03/07 04:51:18;;;;;;;2.58;1.40;;;;;;;;;;5071873;28;20099;-64
2022/03/07 04:53:44;;;;;;;2.35;1.27;;;;;;;;;;5079139;28;20024;-62
2022/03/07 04:56:10;;;;;;;1.23;1.00;;;;;;;;;;5092317;28;20085;-61
2022/03/07 04:58:37;;;;;;;1.50;1.20;;;;;;;;;;5091716;28;20028;-61
2022/03/07 05:01:03;;;;;;;1.75;1.20;;;;;;;;;;5082060;28;20032;-61
2022/03/07 05:03:29;;;;;;;1.92;1.73;;;;;;;;;;5076068;28;20016;-63
2022/03/07 05:05:55;;;;;;;1.73;1.40;;;;;;;;;;5092345;28;20028;-65
2022/03/07 05:08:21;;;;;;;0.90;0.80;;;;;;;;;;5091642;28;20047;-65
2022/03/07 05:10:47;;;;;;;1.20;1.10;;;;;;;;;;5091781;28;20047;-67
2022/03/07 05:13:14;;;;;;;1.08;0.93;;;;;;;;;;5091787;28;20027;-58
2022/03/07 05:15:40;;;;;;;1.63;1.35;;;;;;;;;;5071517;28;20048;-71
2022/03/07 05:18:06;;;;;;;2.03;1.58;;;;;;;;;;5071757;28;20024;-66
2022/03/07 05:20:32;;;;;;;1.23;1.13;;;;;;;;;;5075771;28;20024;-66
2022/03/07 05:22:58;;;;;;;2.17;1.25;;;;;;;;;;5091656;28;20492;-69
2022/03/07 05:25:24;;;;;;;1.30;1.17;;;;;;;;;;5071007;28;20024;-68
2022/03/07 05:27:50;;;;;;;1.58;1.20;;;;;;;;;;5072350;28;20036;-70
2022/03/07 05:30:18;;;;;;;1.85;1.60;;;;;;;;;;5071226;28;20026;-56
2022/03/07 05:32:44;;;;;;;2.95;1.50;;;;;;;;;;5072192;28;20020;-61
2022/03/07 05:35:11;;;;;;;1.40;1.30;;;;;;;;;;5089688;28;20054;-68
2022/03/07 05:37:37;;;;;;;2.00;1.42;;;;;;;;;;5090647;28;20615;-67
2022/03/07 05:40:04;;;;;;;1.50;1.25;;;;;;;;;;5091639;28;20020;-67
2022/03/07 05:42:30;;;;;;;2.20;1.48;;;;;;;;;;5091200;28;20361;-70
2022/03/07 05:44:56;;;;;;;1.42;1.10;;;;;;;;;;5090749;28;20020;-67
2022/03/07 05:47:22;;;;;;;1.42;1.27;;;;;;;;;;5091068;28;20038;-66
2022/03/07 05:49:48;;;;;;;1.60;1.15;;;;;;;;;;5091243;28;20017;-67
2022/03/07 05:52:14;;;;;;;1.40;1.30;;;;;;;;;;5091503;28;20444;-66
2022/03/07 05:54:40;;;;;;;1.60;1.30;;;;;;;;;;5090494;28;20077;-67
2022/03/07 05:57:06;;;;;;;2.00;1.80;;;;;;;;;;5076640;28;20032;-66
2022/03/07 05:59:32;;;;;;;2.00;1.23;;;;;;;;;;5070742;28;20025;-66
2022/03/07 06:01:58;;;;;;;2.85;1.23;;;;;;;;;;5083162;28;20146;-68
2022/03/07 06:04:24;;;;;;;2.00;1.50;;;;;;;;;;5079097;28;20374;-68
2022/03/07 06:06:50;;;;;;;1.70;1.10;;;;;;;;;;5082247;28;20036;-67
2022/03/07 06:09:17;;;;;;;1.85;1.30;;;;;;;;;;5080867;28;20016;-57
2022/03/07 06:11:43;;;;;;;2.10;1.52;;;;;;;;;;5079701;28;20024;-67
2022/03/07 06:14:09;;;;;;;2.50;1.42;;;;;;;;;;5079618;28;20024;-66
2022/03/07 06:16:34;;;;;;;1.50;1.30;;;;;;;;;;5078529;28;20127;-67
2022/03/07 06:19:00;;;;;;;1.75;1.30;;;;;;;;;;5091712;28;20127;-67
2022/03/07 06:21:27;;;;;;;2.00;1.40;;;;;;;;;;5083678;28;20016;-67
2022/03/07 06:23:53;;;;;;;1.75;1.42;;;;;;;;;;5075690;28;20055;-66
2022/03/07 06:26:19;;;;;;;1.98;1.45;;;;;;;;;;5080843;28;20465;-55
2022/03/07 06:28:45;;;;;;;1.25;1.15;;;;;;;;;;5083846;28;20029;-66
2022/03/07 06:31:11;;;;;;;1.73;1.30;;;;;;;;;;5086267;28;20099;-67
2022/03/07 06:33:37;;;;;;;1.42;1.10;;;;;;;;;;5077864;28;20032;-68
2022/03/07 06:36:06;;;;;;;1.50;1.30;;;;;;;;;;5073716;28;20066;-58
2022/03/07 06:38:34;;;;;;;1.63;1.30;;;;;;;;;;5068554;28;20042;-67
2022/03/07 06:41:00;;;;;;;3.80;1.13;;;;;;;;;;5090150;28;20024;-67
2022/03/07 06:43:26;;;;;;;2.10;1.80;;;;;;;;;;5080754;28;20560;-67
2022/03/07 06:45:53;;;;;;;2.05;1.50;;;;;;;;;;5087557;28;20024;-67
2022/03/07 06:48:19;;;;;;;1.98;1.40;;;;;;;;;;5094209;28;20119;-59
2022/03/07 06:50:45;;;;;;;1.20;1.10;;;;;;;;;;5075518;28;20437;-67
2022/03/07 06:53:11;;;;;;;1.92;1.40;;;;;;;;;;5074271;28;20021;-68
2022/03/07 06:55:37;;;;;;;2.55;1.27;;;;;;;;;;5073581;28;20127;-64
2022/03/07 06:58:03;;;;;;;2.25;1.55;;;;;;;;;;5090963;28;20024;-68
2022/03/07 07:00:29;;;;;;;3.50;1.25;;;;;;;;;;5091858;28;20027;-66
2022/03/07 07:02:55;;;;;;;5.20;1.58;;;;;;;;;;5092762;28;20372;-58
2022/03/07 07:05:21;;;;;;;5.13;1.42;;;;;;;;;;5092081;28;20024;-56
2022/03/07 07:07:47;;;;;;;5.03;1.80;;;;;;;;;;5092918;28;20036;-59
2022/03/07 07:10:19;;;;;;;3.78;1.50;;;;;;;;;;5091787;28;20091;-51
2022/03/07 07:12:46;;;;;;;3.97;2.03;;;;;;;;;;5073671;28;20024;-57
2022/03/07 07:15:12;;;;;;;4.75;2.10;;;;;;;;;;5073624;28;20036;-57
2022/03/07 07:17:38;;;;;;;4.53;1.60;;;;;;;;;;5073274;28;20538;-57
2022/03/07 07:20:05;;;;;;;4.03;1.33;;;;;;;;;;5085318;28;20481;-58
2022/03/07 07:22:31;;;;;;;3.88;1.70;;;;;;;;;;5075681;28;20036;-59
2022/03/07 07:24:57;;;;;;;5.28;1.92;;;;;;;;;;5084453;28;20028;-59
2022/03/07 07:27:23;;;;;;;9.18;1.73;;;;;;;;;;5065289;28;20038;-58
2022/03/07 07:29:49;;;;;;;6.28;2.25;;;;;;;;;;5083538;28;20078;-58
2022/03/07 07:32:15;;;;;;;3.47;1.48;;;;;;;;;;5084462;28;20028;-58
2022/03/07 07:34:41;;;;;;;3.75;1.60;;;;;;;;;;5082366;28;20031;-58
2022/03/07 07:37:08;;;;;;;2.78;1.73;;;;;;;;;;5077041;28;20032;-57
2022/03/07 07:39:34;;;;;;;3.20;2.13;;;;;;;;;;5072272;28;20031;-57
2022/03/07 07:42:00;;;;;;;5.32;1.90;;;;;;;;;;5077701;28;20044;-58
2022/03/07 07:44:27;;;;;;;14.55;1.83;;;;;;;;;;5081393;28;20524;-58
2022/03/07 07:46:53;;;;;;;3.33;2.13;;;;;;;;;;5081793;28;20036;-58
2022/03/07 07:49:19;;;;;;;3.28;1.73;;;;;;;;;;5084508;28;20056;-58
2022/03/07 07:51:45;;;;;;;3.65;1.98;;;;;;;;;;5075316;28;20025;-56
2022/03/07 07:54:11;;;;;;;3.78;1.65;;;;;;;;;;5083293;28;20054;-58
2022/03/07 07:56:37;;;;;;;2.95;1.58;;;;;;;;;;5087222;28;20032;-55
2022/03/07 07:59:03;;;;;;;4.38;2.20;;;;;;;;;;5091713;28;20032;-58
2022/03/07 08:01:29;;;;;;;3.10;1.40;;;;;;;;;;5077072;28;20399;-58
2022/03/07 08:03:56;;;;;;;3.42;1.50;;;;;;;;;;5073371;28;20036;-58
2022/03/07 08:06:22;;;;;;;3.38;1.40;;;;;;;;;;5069634;28;20021;-58
2022/03/07 08:08:48;;;;;;;3.03;1.50;;;;;;;;;;5080387;28;20024;-58
2022/03/07 08:11:14;;;;;;;2.50;1.58;;;;;;;;;;5081706;28;20031;-58
2022/03/07 08:13:40;;;;;;;3.40;1.48;;;;;;;;;;5085105;28;20087;-58
2022/03/07 08:16:07;;;;;;;3.20;1.73;;;;;;;;;;5090979;28;20396;-58
2022/03/07 08:18:33;;;;;;;3.80;1.50;;;;;;;;;;5081666;28;20111;-58
2022/03/07 08:21:00;;;;;;;4.95;2.15;;;;;;;;;;5076006;28;20028;-58
2022/03/07 08:23:26;;;;;;;5.85;1.60;;;;;;;;;;5074507;28;20036;-58
2022/03/07 08:25:52;;;;;;;1.85;1.63;;;;;;;;;;5086860;28;20032;-58
2022/03/07 08:28:18;;;;;;;2.35;1.50;;;;;;;;;;5072475;28;20039;-58
2022/03/07 08:30:44;;;;;;;2.58;1.60;;;;;;;;;;5071707;28;20078;-58
2022/03/07 08:33:10;;;;;;;2.85;1.88;;;;;;;;;;5072572;28;20521;-57
2022/03/07 08:35:36;;;;;;;3.97;1.92;;;;;;;;;;5071972;28;20118;-58
2022/03/07 08:38:02;;;;;;;3.30;1.95;;;;;;;;;;5089004;28;20114;-58
2022/03/07 08:40:28;;;;;;;2.22;1.25;;;;;;;;;;5083845;28;20122;-58
2022/03/07 08:42:55;;;;;;;2.10;1.42;;;;;;;;;;5072593;28;20035;-58
2022/03/07 08:45:22;;;;;;;2.92;1.50;;;;;;;;;;5087830;28;20443;-58
2022/03/07 08:47:48;;;;;;;2.47;1.70;;;;;;;;;;5071961;28;20043;-58
2022/03/07 08:50:16;;;;;;;2.13;1.92;;;;;;;;;;5071880;28;20091;-58
2022/03/07 08:52:42;;;;;;;2.78;1.65;;;;;;;;;;5071335;28;20055;-58
2022/03/07 08:55:09;;;;;;;3.03;1.40;;;;;;;;;;5082023;28;20092;-58
2022/03/07 08:57:35;;;;;;;3.00;1.92;;;;;;;;;;5091614;28;20118;-58
2022/03/07 09:00:01;;;;;;;2.08;1.52;;;;;;;;;;5084071;28;20021;-58
2022/03/07 09:02:27;;;;;;;2.47;1.45;;;;;;;;;;5075953;28;20016;-58
2022/03/07 09:04:53;;;;;;;2.00;1.50;;;;;;;;;;5087699;28;20024;-58
2022/03/07 09:07:19;;;;;;;3.35;1.70;;;;;;;;;;5085128;28;20461;-58
2022/03/07 09:09:45;;;;;;;2.85;1.33;;;;;;;;;;5089021;28;20028;-58
2022/03/07 09:12:11;;;;;;;3.05;1.38;;;;;;;;;;5092095;28;20031;-58
2022/03/07 09:14:37;;;;;;;2.97;1.92;;;;;;;;;;5078449;28;20017;-58
2022/03/07 09:17:04;;;;;;;3.55;2.00;;;;;;;;;;5071697;28;20432;-58
2022/03/07 09:19:30;;;;;;;2.28;1.60;;;;;;;;;;5074236;28;20354;-58
2022/03/07 09:21:56;;;;;;;1.92;1.25;;;;;;;;;;5091621;28;20074;-58
2022/03/07 09:24:23;;;;;;;2.47;1.73;;;;;;;;;;5091965;28;20025;-58
2022/03/07 09:26:49;;;;;;;2.10;1.30;;;;;;;;;;5091186;28;20032;-58
2022/03/07 09:29:15;;;;;;;2.80;1.30;;;;;;;;;;5084136;28;20032;-58
2022/03/07 09:31:41;;;;;;;1.60;1.50;;;;;;;;;;5070780;28;20048;-58
2022/03/07 09:34:08;;;;;;;3.42;1.50;;;;;;;;;;5077830;28;20342;-58
2022/03/07 09:36:36;;;;;;;2.08;1.70;;;;;;;;;;5091413;28;20509;-58
2022/03/07 09:39:02;;;;;;;2.00;1.52;;;;;;;;;;5075030;28;20024;-58
2022/03/07 09:41:28;;;;;;;2.65;1.42;;;;;;;;;;5070579;28;20389;-58
2022/03/07 09:43:54;;;;;;;2.28;2.08;;;;;;;;;;5073720;28;20414;-58
2022/03/07 09:46:20;;;;;;;2.17;1.40;;;;;;;;;;5076779;28;20035;-58
2022/03/07 09:48:46;;;;;;;3.90;1.77;;;;;;;;;;5070401;28;20025;-58
2022/03/07 09:51:12;;;;;;;2.75;1.30;;;;;;;;;;5071057;28;20043;-58
2022/03/07 09:53:38;;;;;;;2.53;1.63;;;;;;;;;;5071123;28;20032;-58
2022/03/07 09:56:05;;;;;;;1.90;1.65;;;;;;;;;;5081012;28;20032;-58
2022/03/07 09:58:31;;;;;;;1.85;1.40;;;;;;;;;;5090718;28;20020;-58
2022/03/07 10:01:19;;;;;;;2.35;1.27;;;;;;;;;;5091878;28;20028;-57
2022/03/07 10:03:46;;;;;;;1.80;1.27;;;;;;;;;;5085821;28;20637;-58
2022/03/07 10:06:13;;;;;;;1.55;1.27;;;;;;;;;;5086869;28;20074;-58
2022/03/07 10:08:39;;;;;;;1.60;1.30;;;;;;;;;;5094972;28;20477;-58
2022/03/07 10:11:09;;;;;;;4.22;1.58;;;;;;;;;;5095444;28;20077;-58
2022/03/07 10:13:35;;;;;;;1.45;1.15;;;;;;;;;;5092162;28;20496;-58
2022/03/07 10:16:03;;;;;;;2.08;1.40;;;;;;;;;;5085994;28;20106;-58
2022/03/07 10:18:29;;;;;;;1.92;1.20;;;;;;;;;;5058184;28;20032;-58
2022/03/07 10:20:58;;;;;;;2.53;1.30;;;;;;;;;;5095352;28;20031;-58
2022/03/07 10:23:25;;;;;;;2.22;1.33;;;;;;;;;;5093925;28;20088;-58
2022/03/07 10:25:51;;;;;;;2.85;1.30;;;;;;;;;;5093827;28;20020;-58
2022/03/07 10:28:18;;;;;;;2.30;1.67;;;;;;;;;;5094571;28;20028;-58
2022/03/07 10:30:44;;;;;;;1.70;1.40;;;;;;;;;;5093326;28;20028;-58
2022/03/07 10:33:12;;;;;;;1.70;1.50;;;;;;;;;;5094809;28;20020;-58
2022/03/07 10:35:42;;;;;;;3.08;1.30;;;;;;;;;;5094267;28;20052;-58
2022/03/07 10:38:10;;;;;;;1.40;1.20;;;;;;;;;;5094862;28;20117;-58
2022/03/07 10:40:39;;;;;;;3.25;2.05;;;;;;;;;;5063999;28;20039;-58
2022/03/07 10:43:05;;;;;;;1.65;1.35;;;;;;;;;;5074667;28;20029;-58
2022/03/07 10:45:31;;;;;;;2.17;1.35;;;;;;;;;;5056312;28;20052;-58
2022/03/07 10:48:00;;;;;;;2.05;1.55;;;;;;;;;;5074237;28;20058;-58
2022/03/07 10:50:27;;;;;;;1.88;1.35;;;;;;;;;;5081935;28;20051;-58
2022/03/07 10:52:58;;;;;;;2.70;1.60;;;;;;;;;;5091333;28;20025;-58
2022/03/07 10:55:25;;;;;;;2.53;1.48;;;;;;;;;;5074196;28;20047;-58
2022/03/07 10:57:51;;;;;;;2.15;1.40;;;;;;;;;;5074068;28;20075;-58
2022/03/07 11:00:18;;;;;;;2.88;1.60;;;;;;;;;;5073980;28;20056;-58
2022/03/07 11:02:45;;;;;;;2.33;1.15;;;;;;;;;;5074130;28;20095;-58
2022/03/07 11:05:12;;;;;;;2.40;1.60;;;;;;;;;;5094237;28;20032;-58
2022/03/07 11:07:39;;;;;;;2.10;1.50;;;;;;;;;;5093686;28;20028;-58
2022/03/07 11:10:06;;;;;;;1.70;1.20;;;;;;;;;;5093747;28;20031;-58
2022/03/07 11:12:32;;;;;;;1.95;1.52;;;;;;;;;;5083377;28;20127;-58
2022/03/07 11:15:00;;;;;;;2.35;1.70;;;;;;;;;;5087413;28;20032;-57
2022/03/07 11:17:27;;;;;;;1.73;1.40;;;;;;;;;;5093580;28;20103;-58
2022/03/07 11:19:54;;;;;;;4.63;1.30;;;;;;;;;;5093870;28;20024;-58
2022/03/07 11:22:21;;;;;;;2.25;1.60;;;;;;;;;;5089831;28;20020;-58
2022/03/07 11:24:47;;;;;;;1.85;1.45;;;;;;;;;;5080980;28;20040;-58
2022/03/07 11:27:15;;;;;;;2.97;1.73;;;;;;;;;;5087804;28;20028;-58
2022/03/07 11:29:42;;;;;;;2.25;1.63;;;;;;;;;;5074109;28;20033;-58
2022/03/07 11:32:09;;;;;;;3.85;1.48;;;;;;;;;;5073726;28;20029;-58
2022/03/07 11:34:36;;;;;;;2.47;1.38;;;;;;;;;;5055419;28;20592;-58
2022/03/07 11:37:03;;;;;;;1.73;1.23;;;;;;;;;;5074333;28;20032;-58
2022/03/07 11:39:33;;;;;;;2.30;1.77;;;;;;;;;;5085045;28;20032;-58
2022/03/07 11:42:13;;;;;;;2.45;1.23;;;;;;;;;;5093649;28;20370;-58
2022/03/07 11:44:40;;;;;;;1.83;1.48;;;;;;;;;;5079782;28;20035;-58
2022/03/07 11:47:11;;;;;;;2.80;1.45;;;;;;;;;;5091357;28;20489;-58
2022/03/07 11:49:37;;;;;;;1.80;1.40;;;;;;;;;;5092465;28;20035;-58
2022/03/07 11:52:07;;;;;;;1.88;1.25;;;;;;;;;;5080603;28;20414;-58
2022/03/07 11:54:34;;;;;;;2.15;1.70;;;;;;;;;;5072599;28;20055;-58
2022/03/07 11:57:10;;;;;;;1.70;1.30;;;;;;;;;;5073159;28;20041;-58
2022/03/07 11:59:36;;;;;;;1.90;1.42;;;;;;;;;;5073375;28;20038;-58
2022/03/07 12:02:03;;;;;;;1.67;1.50;;;;;;;;;;5076811;28;20044;-58
2022/03/07 12:04:42;;;;;;;1.52;1.10;;;;;;;;;;5083765;28;20135;-58
2022/03/07 12:07:09;;;;;;;1.98;1.42;;;;;;;;;;5093190;28;20028;-58
2022/03/07 12:09:36;;;;;;;2.45;1.35;;;;;;;;;;5079419;28;20508;-56
2022/03/07 12:12:02;;;;;;;1.55;1.20;;;;;;;;;;5072576;28;20370;-58
2022/03/07 12:14:32;;;;;;;2.20;1.65;;;;;;;;;;5083690;28;20030;-58
2022/03/07 12:17:00;;;;;;;2.25;2.05;;;;;;;;;;5077249;28;20061;-58
2022/03/07 12:19:27;;;;;;;3.53;1.58;;;;;;;;;;5072676;28;20028;-58
2022/03/07 12:21:53;;;;;;;2.17;1.45;;;;;;;;;;5071819;28;20385;-58
2022/03/07 12:24:21;;;;;;;1.83;1.40;;;;;;;;;;5071476;28;20029;-56
2022/03/07 12:26:57;;;;;;;1.98;1.63;;;;;;;;;;5071873;28;20056;-58
2022/03/07 12:29:24;;;;;;;1.60;1.17;;;;;;;;;;5086310;28;20036;-58
2022/03/07 12:31:53;;;;;;;2.15;1.63;;;;;;;;;;5090204;28;20557;-58
2022/03/07 12:34:23;;;;;;;1.48;1.38;;;;;;;;;;5092615;28;20369;-58
2022/03/07 12:36:57;;;;;;;2.35;1.40;;;;;;;;;;5090640;28;20050;-58
2022/03/07 12:39:23;;;;;;;2.10;1.63;;;;;;;;;;5084482;28;20024;-58
2022/03/07 12:41:49;;;;;;;1.92;1.30;;;;;;;;;;5092591;28;20034;-57
2022/03/07 12:44:15;;;;;;;2.35;1.58;;;;;;;;;;5091178;28;20059;-58
2022/03/07 12:46:42;;;;;;;2.60;1.45;;;;;;;;;;5078521;28;20060;-58
2022/03/07 12:49:08;;;;;;;1.92;1.48;;;;;;;;;;5072564;28;20032;-58
2022/03/07 12:51:36;;;;;;;2.00;1.40;;;;;;;;;;5070957;28;20028;-58
2022/03/07 12:54:03;;;;;;;2.63;1.48;;;;;;;;;;5091925;28;20020;-58
2022/03/07 12:56:35;;;;;;;2.10;1.52;;;;;;;;;;5092499;28;20376;-58
2022/03/07 12:59:01;;;;;;;;;;;;;;;;;;5075038;28;20434;-58
2022/03/07 13:01:27;;;;;;;2.00;1.10;;;;;;;;;;5072123;28;19904;-58
2022/03/07 13:03:54;;;;;;;1.95;1.30;;;;;;;;;;5071545;28;20031;-58
2022/03/07 13:06:21;;;;;;;1.63;1.35;;;;;;;;;;5075823;28;20550;-58
2022/03/07 13:08:54;;;;;;;1.63;1.38;;;;;;;;;;5089383;28;20039;-58
2022/03/07 13:11:41;;;;;;;2.08;1.30;;;;;;;;;;5092266;28;20056;-57
2022/03/07 13:14:07;;;;;;;1.60;1.40;;;;;;;;;;5089788;28;20028;-58
2022/03/07 13:16:34;;;;;;;1.50;1.30;;;;;;;;;;5091671;28;20060;-58
2022/03/07 13:19:02;;;;;;;1.40;1.25;;;;;;;;;;5092069;28;20504;-58
2022/03/07 13:21:31;;;;;;;2.78;1.80;;;;;;;;;;5091824;28;20403;-58
2022/03/07 13:23:57;;;;;;;2.40;1.50;;;;;;;;;;5090783;28;20170;-58
2022/03/07 13:26:25;;;;;;;2.85;1.30;;;;;;;;;;5092449;28;20368;-58
2022/03/07 13:29:02;;;;;;;1.45;1.35;;;;;;;;;;5091028;28;20028;-58
2022/03/07 13:31:28;;;;;;;2.63;1.70;;;;;;;;;;5091059;28;20020;-58
2022/03/07 13:33:58;;;;;;;1.48;1.30;;;;;;;;;;5077474;28;20024;-58
2022/03/07 13:36:24;;;;;;;1.17;1.05;;;;;;;;;;5091546;28;20385;-58
2022/03/07 13:38:50;;;;;;;1.95;1.10;;;;;;;;;;5083229;28;20029;-58
2022/03/07 13:41:16;;;;;;;2.22;1.45;;;;;;;;;;5079769;28;20028;-58
2022/03/07 13:43:42;;;;;;;1.92;1.40;;;;;;;;;;5086577;28;20423;-58
2022/03/07 13:46:15;;;;;;;1.80;1.30;;;;;;;;;;5083787;28;20064;-58
2022/03/07 13:48:41;;;;;;;1.38;1.10;;;;;;;;;;5070912;28;20040;-58
2022/03/07 13:51:07;;;;;;;2.00;1.65;;;;;;;;;;5071578;28;20114;-58
2022/03/07 13:53:34;;;;;;;1.90;1.50;;;;;;;;;;5086963;28;20028;-58
2022/03/07 13:56:00;;;;;;;2.05;1.33;;;;;;;;;;5091351;28;20024;-57
2022/03/07 13:58:32;;;;;;;1.67;1.38;;;;;;;;;;5088952;28;20480;-58
2022/03/07 14:00:58;;;;;;;;;;;;;;;;;;5071755;28;20020;-58
2022/03/07 14:03:26;;;;;;;2.60;1.55;;;;;;;;;;5071325;28;19931;-57
2022/03/07 14:05:54;;;;;;;2.30;1.40;;;;;;;;;;5070541;28;20282;-58
2022/03/07 14:08:31;;;;;;;1.30;1.20;;;;;;;;;;5072284;28;20039;-58
2022/03/07 14:10:58;;;;;;;3.05;1.40;;;;;;;;;;5071107;28;20024;-58
2022/03/07 14:13:35;;;;;;;1.73;1.33;;;;;;;;;;5071888;28;20032;-58
2022/03/07 14:16:01;;;;;;;2.10;1.58;;;;;;;;;;5084275;28;20048;-58
2022/03/07 14:18:27;;;;;;;3.38;1.73;;;;;;;;;;5053431;28;20045;-58
2022/03/07 14:20:53;;;;;;;1.75;1.30;;;;;;;;;;5070315;28;20028;-58
2022/03/07 14:23:18;;;;;;;1.70;1.50;;;;;;;;;;5073467;28;20060;-58
2022/03/07 14:25:45;;;;;;;2.10;1.50;;;;;;;;;;5089060;28;20113;-58
2022/03/07 14:28:11;;;;;;;2.20;1.40;;;;;;;;;;5091119;28;20025;-58
2022/03/07 14:30:37;;;;;;;1.60;1.40;;;;;;;;;;5086491;28;20017;-58
2022/03/07 14:33:03;;;;;;;1.92;1.73;;;;;;;;;;5079584;28;20020;-58
2022/03/07 14:35:29;;;;;;;2.65;1.75;;;;;;;;;;5083021;28;20054;-58
2022/03/07 14:37:55;;;;;;;1.77;1.02;;;;;;;;;;5089655;28;20032;-58
2022/03/07 14:40:22;;;;;;;1.52;1.40;;;;;;;;;;5089907;28;20032;-58